sensor_id;sensor_type;location;lat;lon;timestamp;P1;durP1;ratioP1;P2;durP2;ratioP2
43700;SDS011;58809;47.984;7.964;2023-06-01T00:00:39;10.00;;;6.85;;
43700;SDS011;58809;47.984;7.964;2023-06-01T00:03:42;9.30;;;6.85;;
43700;SDS011;58809;47.984;7.964;2023-06-01T00:06:45;9.00;;;7.10;;
43700;SDS011;58809;47.984;7.964;2023-06-01T00:09:47;9.32;;;6.38;;
43700;SDS011;58809;47.984;7.964;2023-06-01T00:12:49;10.02;;;6.30;;
43700;SDS011;58809;47.984;7.964;2023-06-01T00:15:50;8.98;;;6.40;;
43700;SDS011;58809;47.984;7.964;2023-06-01T00:18:52;10.93;;;7.35;;
43700;SDS011;58809;47.984;7.964;2023-06-01T00:21:54;9.68;;;6.25;;
43700;SDS011;58809;47.984;7.964;2023-06-01T00:28:00;10.55;;;6.50;;
43700;SDS011;58809;47.984;7.964;2023-06-01T00:31:03;8.38;;;7.03;;
43700;SDS011;58809;47.984;7.964;2023-06-01T00:34:05;10.23;;;7.40;;
43700;SDS011;58809;47.984;7.964;2023-06-01T00:37:08;8.85;;;6.88;;
43700;SDS011;58809;47.984;7.964;2023-06-01T00:40:10;10.35;;;7.47;;
43700;SDS011;58809;47.984;7.964;2023-06-01T00:43:12;8.45;;;6.78;;
43700;SDS011;58809;47.984;7.964;2023-06-01T00:46:13;11.07;;;7.25;;
43700;SDS011;58809;47.984;7.964;2023-06-01T00:49:15;9.82;;;7.07;;
43700;SDS011;58809;47.984;7.964;2023-06-01T00:52:17;11.98;;;7.65;;
43700;SDS011;58809;47.984;7.964;2023-06-01T00:55:20;9.57;;;7.40;;
43700;SDS011;58809;47.984;7.964;2023-06-01T00:58:21;9.30;;;7.55;;
43700;SDS011;58809;47.984;7.964;2023-06-01T01:01:23;11.65;;;7.53;;
43700;SDS011;58809;47.984;7.964;2023-06-01T01:04:25;12.75;;;7.95;;
43700;SDS011;58809;47.984;7.964;2023-06-01T01:10:49;10.70;;;6.97;;
43700;SDS011;58809;47.984;7.964;2023-06-01T01:20:22;10.73;;;8.07;;
43700;SDS011;58809;47.984;7.964;2023-06-01T01:30:28;11.77;;;7.75;;
43700;SDS011;58809;47.984;7.964;2023-06-01T01:33:31;11.23;;;7.60;;
43700;SDS011;58809;47.984;7.964;2023-06-01T01:36:34;10.07;;;6.80;;
43700;SDS011;58809;47.984;7.964;2023-06-01T01:39:37;8.52;;;6.78;;
43700;SDS011;58809;47.984;7.964;2023-06-01T01:42:39;9.57;;;7.55;;
43700;SDS011;58809;47.984;7.964;2023-06-01T01:45:41;9.80;;;7.53;;
43700;SDS011;58809;47.984;7.964;2023-06-01T01:52:26;10.90;;;7.90;;
43700;SDS011;58809;47.984;7.964;2023-06-01T01:58:36;12.75;;;7.30;;
43700;SDS011;58809;47.984;7.964;2023-06-01T02:01:38;10.50;;;7.28;;
43700;SDS011;58809;47.984;7.964;2023-06-01T02:04:46;11.15;;;7.32;;
43700;SDS011;58809;47.984;7.964;2023-06-01T02:07:47;9.13;;;7.35;;
43700;SDS011;58809;47.984;7.964;2023-06-01T02:10:49;10.43;;;7.70;;
43700;SDS011;58809;47.984;7.964;2023-06-01T02:13:51;11.48;;;7.72;;
43700;SDS011;58809;47.984;7.964;2023-06-01T02:16:53;11.68;;;7.93;;
43700;SDS011;58809;47.984;7.964;2023-06-01T02:19:55;9.05;;;7.03;;
43700;SDS011;58809;47.984;7.964;2023-06-01T02:22:56;10.13;;;7.18;;
43700;SDS011;58809;47.984;7.964;2023-06-01T02:25:58;9.25;;;7.40;;
43700;SDS011;58809;47.984;7.964;2023-06-01T02:29:00;10.57;;;7.07;;
43700;SDS011;58809;47.984;7.964;2023-06-01T02:35:06;8.82;;;6.95;;
43700;SDS011;58809;47.984;7.964;2023-06-01T02:38:09;12.80;;;7.75;;
43700;SDS011;58809;47.984;7.964;2023-06-01T02:41:11;10.38;;;7.65;;
43700;SDS011;58809;47.984;7.964;2023-06-01T02:44:14;10.68;;;7.88;;
43700;SDS011;58809;47.984;7.964;2023-06-01T02:47:16;10.07;;;7.50;;
43700;SDS011;58809;47.984;7.964;2023-06-01T02:50:18;10.20;;;7.70;;
43700;SDS011;58809;47.984;7.964;2023-06-01T02:53:23;10.20;;;8.32;;
43700;SDS011;58809;47.984;7.964;2023-06-01T02:56:28;10.10;;;7.63;;
43700;SDS011;58809;47.984;7.964;2023-06-01T02:59:55;13.68;;;8.68;;
43700;SDS011;58809;47.984;7.964;2023-06-01T03:02:57;10.32;;;8.07;;
43700;SDS011;58809;47.984;7.964;2023-06-01T03:05:59;11.13;;;7.50;;
43700;SDS011;58809;47.984;7.964;2023-06-01T03:09:26;12.35;;;8.32;;
43700;SDS011;58809;47.984;7.964;2023-06-01T03:12:48;12.02;;;8.13;;
43700;SDS011;58809;47.984;7.964;2023-06-01T03:15:50;10.10;;;8.45;;
43700;SDS011;58809;47.984;7.964;2023-06-01T03:18:52;11.30;;;8.18;;
43700;SDS011;58809;47.984;7.964;2023-06-01T03:21:54;12.77;;;8.35;;
43700;SDS011;58809;47.984;7.964;2023-06-01T03:24:56;10.73;;;8.07;;
43700;SDS011;58809;47.984;7.964;2023-06-01T03:28:02;10.85;;;7.75;;
43700;SDS011;58809;47.984;7.964;2023-06-01T03:31:05;10.80;;;8.35;;
43700;SDS011;58809;47.984;7.964;2023-06-01T03:34:07;11.05;;;7.70;;
43700;SDS011;58809;47.984;7.964;2023-06-01T03:37:09;10.88;;;7.40;;
43700;SDS011;58809;47.984;7.964;2023-06-01T03:40:11;10.55;;;8.50;;
43700;SDS011;58809;47.984;7.964;2023-06-01T03:43:14;14.57;;;7.90;;
43700;SDS011;58809;47.984;7.964;2023-06-01T03:46:16;12.15;;;7.70;;
43700;SDS011;58809;47.984;7.964;2023-06-01T03:49:19;11.63;;;7.68;;
43700;SDS011;58809;47.984;7.964;2023-06-01T03:52:21;11.25;;;8.00;;
43700;SDS011;58809;47.984;7.964;2023-06-01T03:55:22;11.52;;;8.07;;
43700;SDS011;58809;47.984;7.964;2023-06-01T03:58:48;13.02;;;8.15;;
43700;SDS011;58809;47.984;7.964;2023-06-01T04:01:51;14.50;;;8.70;;
43700;SDS011;58809;47.984;7.964;2023-06-01T04:04:52;10.63;;;8.02;;
43700;SDS011;58809;47.984;7.964;2023-06-01T04:07:54;12.25;;;8.10;;
43700;SDS011;58809;47.984;7.964;2023-06-01T04:10:56;10.57;;;8.20;;
43700;SDS011;58809;47.984;7.964;2023-06-01T04:13:58;11.10;;;8.32;;
43700;SDS011;58809;47.984;7.964;2023-06-01T04:17:01;18.52;;;8.50;;
43700;SDS011;58809;47.984;7.964;2023-06-01T04:20:05;11.70;;;8.05;;
43700;SDS011;58809;47.984;7.964;2023-06-01T04:26:10;10.75;;;7.97;;
43700;SDS011;58809;47.984;7.964;2023-06-01T04:29:12;14.40;;;8.88;;
43700;SDS011;58809;47.984;7.964;2023-06-01T04:32:14;11.88;;;9.13;;
43700;SDS011;58809;47.984;7.964;2023-06-01T04:35:22;10.30;;;8.07;;
43700;SDS011;58809;47.984;7.964;2023-06-01T04:38:24;11.63;;;9.00;;
43700;SDS011;58809;47.984;7.964;2023-06-01T04:41:26;14.85;;;8.88;;
43700;SDS011;58809;47.984;7.964;2023-06-01T04:44:28;12.32;;;7.97;;
43700;SDS011;58809;47.984;7.964;2023-06-01T04:47:31;11.25;;;7.82;;
43700;SDS011;58809;47.984;7.964;2023-06-01T04:50:33;13.07;;;8.48;;
43700;SDS011;58809;47.984;7.964;2023-06-01T04:53:35;10.25;;;8.20;;
43700;SDS011;58809;47.984;7.964;2023-06-01T04:56:37;12.10;;;8.77;;
43700;SDS011;58809;47.984;7.964;2023-06-01T04:59:42;11.40;;;7.47;;
43700;SDS011;58809;47.984;7.964;2023-06-01T05:02:44;10.82;;;8.50;;
43700;SDS011;58809;47.984;7.964;2023-06-01T05:05:47;11.00;;;8.00;;
43700;SDS011;58809;47.984;7.964;2023-06-01T05:08:49;14.27;;;8.98;;
43700;SDS011;58809;47.984;7.964;2023-06-01T05:11:52;10.43;;;8.60;;
43700;SDS011;58809;47.984;7.964;2023-06-01T05:14:53;12.18;;;8.18;;
43700;SDS011;58809;47.984;7.964;2023-06-01T05:17:55;11.80;;;8.85;;
43700;SDS011;58809;47.984;7.964;2023-06-01T05:20:57;10.60;;;8.20;;
43700;SDS011;58809;47.984;7.964;2023-06-01T05:24:00;10.90;;;8.98;;
43700;SDS011;58809;47.984;7.964;2023-06-01T05:27:01;14.82;;;8.35;;
43700;SDS011;58809;47.984;7.964;2023-06-01T05:30:03;12.65;;;8.85;;
43700;SDS011;58809;47.984;7.964;2023-06-01T05:33:07;10.57;;;8.43;;
43700;SDS011;58809;47.984;7.964;2023-06-01T05:36:08;10.50;;;8.57;;
43700;SDS011;58809;47.984;7.964;2023-06-01T05:39:12;11.50;;;9.03;;
43700;SDS011;58809;47.984;7.964;2023-06-01T05:42:13;11.25;;;9.07;;
43700;SDS011;58809;47.984;7.964;2023-06-01T05:45:15;10.48;;;8.90;;
43700;SDS011;58809;47.984;7.964;2023-06-01T05:48:17;11.45;;;8.68;;
43700;SDS011;58809;47.984;7.964;2023-06-01T05:51:23;12.30;;;8.20;;
43700;SDS011;58809;47.984;7.964;2023-06-01T05:54:26;10.45;;;8.20;;
43700;SDS011;58809;47.984;7.964;2023-06-01T05:57:27;11.77;;;7.78;;
43700;SDS011;58809;47.984;7.964;2023-06-01T06:00:29;10.95;;;7.78;;
43700;SDS011;58809;47.984;7.964;2023-06-01T06:03:31;11.02;;;7.20;;
43700;SDS011;58809;47.984;7.964;2023-06-01T06:06:33;9.52;;;7.35;;
43700;SDS011;58809;47.984;7.964;2023-06-01T06:09:35;9.82;;;7.63;;
43700;SDS011;58809;47.984;7.964;2023-06-01T06:12:36;11.27;;;7.72;;
43700;SDS011;58809;47.984;7.964;2023-06-01T06:15:38;11.07;;;7.70;;
43700;SDS011;58809;47.984;7.964;2023-06-01T06:18:40;11.50;;;8.77;;
43700;SDS011;58809;47.984;7.964;2023-06-01T06:21:41;11.75;;;7.90;;
43700;SDS011;58809;47.984;7.964;2023-06-01T06:24:43;12.75;;;8.23;;
43700;SDS011;58809;47.984;7.964;2023-06-01T06:27:45;17.25;;;8.57;;
43700;SDS011;58809;47.984;7.964;2023-06-01T06:30:47;12.77;;;8.82;;
43700;SDS011;58809;47.984;7.964;2023-06-01T06:33:49;11.57;;;8.65;;
43700;SDS011;58809;47.984;7.964;2023-06-01T06:36:51;11.18;;;9.27;;
43700;SDS011;58809;47.984;7.964;2023-06-01T06:39:53;11.23;;;9.05;;
43700;SDS011;58809;47.984;7.964;2023-06-01T06:42:55;12.85;;;9.90;;
43700;SDS011;58809;47.984;7.964;2023-06-01T06:45:57;12.90;;;9.52;;
43700;SDS011;58809;47.984;7.964;2023-06-01T06:48:58;14.02;;;8.95;;
43700;SDS011;58809;47.984;7.964;2023-06-01T06:52:00;11.85;;;9.27;;
43700;SDS011;58809;47.984;7.964;2023-06-01T06:55:01;12.13;;;9.52;;
43700;SDS011;58809;47.984;7.964;2023-06-01T06:58:03;14.48;;;9.50;;
43700;SDS011;58809;47.984;7.964;2023-06-01T07:01:05;12.18;;;8.75;;
43700;SDS011;58809;47.984;7.964;2023-06-01T07:04:07;14.18;;;8.00;;
43700;SDS011;58809;47.984;7.964;2023-06-01T07:07:08;13.68;;;8.82;;
43700;SDS011;58809;47.984;7.964;2023-06-01T07:10:10;10.57;;;7.68;;
43700;SDS011;58809;47.984;7.964;2023-06-01T07:13:12;14.05;;;7.60;;
43700;SDS011;58809;47.984;7.964;2023-06-01T07:16:14;13.05;;;8.23;;
43700;SDS011;58809;47.984;7.964;2023-06-01T07:19:16;11.50;;;7.30;;
43700;SDS011;58809;47.984;7.964;2023-06-01T07:22:18;10.20;;;8.45;;
43700;SDS011;58809;47.984;7.964;2023-06-01T07:25:21;10.85;;;7.40;;
43700;SDS011;58809;47.984;7.964;2023-06-01T07:28:23;11.13;;;7.65;;
43700;SDS011;58809;47.984;7.964;2023-06-01T07:31:28;11.85;;;7.22;;
43700;SDS011;58809;47.984;7.964;2023-06-01T07:34:30;15.65;;;8.90;;
43700;SDS011;58809;47.984;7.964;2023-06-01T07:37:31;12.63;;;7.80;;
43700;SDS011;58809;47.984;7.964;2023-06-01T07:40:33;12.95;;;7.38;;
43700;SDS011;58809;47.984;7.964;2023-06-01T07:43:37;14.55;;;8.15;;
43700;SDS011;58809;47.984;7.964;2023-06-01T07:46:42;14.07;;;7.10;;
43700;SDS011;58809;47.984;7.964;2023-06-01T07:49:43;11.95;;;7.43;;
43700;SDS011;58809;47.984;7.964;2023-06-01T07:52:45;11.90;;;6.97;;
43700;SDS011;58809;47.984;7.964;2023-06-01T07:55:46;9.65;;;6.88;;
43700;SDS011;58809;47.984;7.964;2023-06-01T07:58:51;10.77;;;6.80;;
43700;SDS011;58809;47.984;7.964;2023-06-01T08:01:52;10.38;;;6.90;;
43700;SDS011;58809;47.984;7.964;2023-06-01T08:04:55;10.75;;;7.47;;
43700;SDS011;58809;47.984;7.964;2023-06-01T08:07:58;11.68;;;6.68;;
43700;SDS011;58809;47.984;7.964;2023-06-01T08:10:59;10.60;;;6.93;;
43700;SDS011;58809;47.984;7.964;2023-06-01T08:14:01;8.55;;;6.90;;
43700;SDS011;58809;47.984;7.964;2023-06-01T08:17:05;9.80;;;6.68;;
43700;SDS011;58809;47.984;7.964;2023-06-01T08:20:08;14.77;;;7.07;;
43700;SDS011;58809;47.984;7.964;2023-06-01T08:23:12;23.33;;;7.60;;
43700;SDS011;58809;47.984;7.964;2023-06-01T08:26:14;12.73;;;6.93;;
43700;SDS011;58809;47.984;7.964;2023-06-01T08:29:16;7.40;;;6.25;;
43700;SDS011;58809;47.984;7.964;2023-06-01T08:32:30;13.10;;;7.20;;
43700;SDS011;58809;47.984;7.964;2023-06-01T08:35:32;10.88;;;6.63;;
43700;SDS011;58809;47.984;7.964;2023-06-01T08:38:34;12.25;;;7.10;;
43700;SDS011;58809;47.984;7.964;2023-06-01T08:41:36;9.32;;;6.70;;
43700;SDS011;58809;47.984;7.964;2023-06-01T08:44:55;10.40;;;6.43;;
43700;SDS011;58809;47.984;7.964;2023-06-01T08:47:59;10.68;;;7.18;;
43700;SDS011;58809;47.984;7.964;2023-06-01T08:51:03;8.73;;;6.18;;
43700;SDS011;58809;47.984;7.964;2023-06-01T08:54:05;15.02;;;7.45;;
43700;SDS011;58809;47.984;7.964;2023-06-01T08:57:10;14.18;;;9.02;;
43700;SDS011;58809;47.984;7.964;2023-06-01T09:00:12;13.27;;;7.70;;
43700;SDS011;58809;47.984;7.964;2023-06-01T09:03:16;8.90;;;6.93;;
43700;SDS011;58809;47.984;7.964;2023-06-01T09:06:18;14.00;;;7.30;;
43700;SDS011;58809;47.984;7.964;2023-06-01T09:09:21;10.40;;;6.55;;
43700;SDS011;58809;47.984;7.964;2023-06-01T09:15:31;10.35;;;7.03;;
43700;SDS011;58809;47.984;7.964;2023-06-01T09:18:33;9.25;;;7.10;;
43700;SDS011;58809;47.984;7.964;2023-06-01T09:21:35;11.63;;;7.63;;
43700;SDS011;58809;47.984;7.964;2023-06-01T09:24:37;10.40;;;7.60;;
43700;SDS011;58809;47.984;7.964;2023-06-01T09:27:51;10.45;;;6.60;;
43700;SDS011;58809;47.984;7.964;2023-06-01T09:30:53;11.35;;;7.32;;
43700;SDS011;58809;47.984;7.964;2023-06-01T09:34:04;15.18;;;7.25;;
43700;SDS011;58809;47.984;7.964;2023-06-01T09:37:06;11.93;;;6.75;;
43700;SDS011;58809;47.984;7.964;2023-06-01T09:40:17;11.85;;;7.55;;
43700;SDS011;58809;47.984;7.964;2023-06-01T09:43:20;12.55;;;7.22;;
43700;SDS011;58809;47.984;7.964;2023-06-01T09:46:22;9.77;;;6.82;;
43700;SDS011;58809;47.984;7.964;2023-06-01T09:49:25;11.25;;;7.00;;
43700;SDS011;58809;47.984;7.964;2023-06-01T09:52:28;9.70;;;6.60;;
43700;SDS011;58809;47.984;7.964;2023-06-01T09:55:29;9.57;;;6.32;;
43700;SDS011;58809;47.984;7.964;2023-06-01T09:58:31;9.63;;;7.03;;
43700;SDS011;58809;47.984;7.964;2023-06-01T10:04:37;9.10;;;6.68;;
43700;SDS011;58809;47.984;7.964;2023-06-01T10:07:41;9.63;;;6.88;;
43700;SDS011;58809;47.984;7.964;2023-06-01T10:10:45;10.98;;;6.75;;
43700;SDS011;58809;47.984;7.964;2023-06-01T10:13:50;11.38;;;6.50;;
43700;SDS011;58809;47.984;7.964;2023-06-01T10:16:53;12.35;;;6.60;;
43700;SDS011;58809;47.984;7.964;2023-06-01T10:19:55;11.65;;;7.10;;
43700;SDS011;58809;47.984;7.964;2023-06-01T10:22:57;11.35;;;7.30;;
43700;SDS011;58809;47.984;7.964;2023-06-01T10:29:10;9.68;;;6.70;;
43700;SDS011;58809;47.984;7.964;2023-06-01T10:38:48;13.57;;;6.50;;
43700;SDS011;58809;47.984;7.964;2023-06-01T10:41:50;9.45;;;6.70;;
43700;SDS011;58809;47.984;7.964;2023-06-01T10:44:51;11.18;;;6.95;;
43700;SDS011;58809;47.984;7.964;2023-06-01T10:47:53;8.77;;;6.30;;
43700;SDS011;58809;47.984;7.964;2023-06-01T10:54:29;10.55;;;6.70;;
43700;SDS011;58809;47.984;7.964;2023-06-01T10:57:35;10.25;;;6.47;;
43700;SDS011;58809;47.984;7.964;2023-06-01T11:00:40;9.18;;;7.03;;
43700;SDS011;58809;47.984;7.964;2023-06-01T11:03:42;10.38;;;7.22;;
43700;SDS011;58809;47.984;7.964;2023-06-01T11:06:46;10.63;;;6.63;;
43700;SDS011;58809;47.984;7.964;2023-06-01T11:09:48;13.98;;;6.78;;
43700;SDS011;58809;47.984;7.964;2023-06-01T11:19:20;10.77;;;6.90;;
43700;SDS011;58809;47.984;7.964;2023-06-01T11:22:26;12.00;;;6.82;;
43700;SDS011;58809;47.984;7.964;2023-06-01T11:25:34;9.50;;;7.75;;
43700;SDS011;58809;47.984;7.964;2023-06-01T11:28:36;9.73;;;6.65;;
43700;SDS011;58809;47.984;7.964;2023-06-01T11:34:40;9.68;;;7.22;;
43700;SDS011;58809;47.984;7.964;2023-06-01T11:37:43;10.13;;;6.55;;
43700;SDS011;58809;47.984;7.964;2023-06-01T11:40:57;9.40;;;7.20;;
43700;SDS011;58809;47.984;7.964;2023-06-01T11:44:03;12.77;;;6.85;;
43700;SDS011;58809;47.984;7.964;2023-06-01T11:47:06;8.30;;;6.57;;
43700;SDS011;58809;47.984;7.964;2023-06-01T11:50:19;13.00;;;7.10;;
43700;SDS011;58809;47.984;7.964;2023-06-01T11:53:23;9.25;;;7.20;;
43700;SDS011;58809;47.984;7.964;2023-06-01T11:56:29;7.88;;;7.05;;
43700;SDS011;58809;47.984;7.964;2023-06-01T11:59:45;9.43;;;7.20;;
43700;SDS011;58809;47.984;7.964;2023-06-01T12:02:49;9.43;;;6.63;;
43700;SDS011;58809;47.984;7.964;2023-06-01T12:06:05;8.55;;;6.82;;
43700;SDS011;58809;47.984;7.964;2023-06-01T12:09:09;9.63;;;6.88;;
43700;SDS011;58809;47.984;7.964;2023-06-01T12:12:11;9.75;;;6.78;;
43700;SDS011;58809;47.984;7.964;2023-06-01T12:15:16;10.02;;;7.15;;
43700;SDS011;58809;47.984;7.964;2023-06-01T12:18:28;10.05;;;7.28;;
43700;SDS011;58809;47.984;7.964;2023-06-01T12:21:32;9.70;;;7.03;;
43700;SDS011;58809;47.984;7.964;2023-06-01T12:24:34;11.18;;;7.22;;
43700;SDS011;58809;47.984;7.964;2023-06-01T12:27:36;10.85;;;7.72;;
43700;SDS011;58809;47.984;7.964;2023-06-01T12:30:39;17.88;;;8.23;;
43700;SDS011;58809;47.984;7.964;2023-06-01T12:33:41;10.52;;;7.20;;
43700;SDS011;58809;47.984;7.964;2023-06-01T12:36:46;10.73;;;7.72;;
43700;SDS011;58809;47.984;7.964;2023-06-01T12:39:54;8.23;;;6.88;;
43700;SDS011;58809;47.984;7.964;2023-06-01T12:43:02;9.38;;;6.63;;
43700;SDS011;58809;47.984;7.964;2023-06-01T12:46:16;10.50;;;7.40;;
43700;SDS011;58809;47.984;7.964;2023-06-01T12:49:22;11.07;;;7.45;;
43700;SDS011;58809;47.984;7.964;2023-06-01T12:52:24;12.95;;;6.68;;
43700;SDS011;58809;47.984;7.964;2023-06-01T12:55:25;8.32;;;6.47;;
43700;SDS011;58809;47.984;7.964;2023-06-01T12:58:27;8.20;;;7.13;;
43700;SDS011;58809;47.984;7.964;2023-06-01T13:01:32;8.60;;;6.50;;
43700;SDS011;58809;47.984;7.964;2023-06-01T13:04:34;9.38;;;6.88;;
43700;SDS011;58809;47.984;7.964;2023-06-01T13:07:36;11.07;;;6.88;;
43700;SDS011;58809;47.984;7.964;2023-06-01T13:10:37;10.43;;;6.32;;
43700;SDS011;58809;47.984;7.964;2023-06-01T13:13:39;9.60;;;7.28;;
43700;SDS011;58809;47.984;7.964;2023-06-01T13:16:44;11.13;;;7.10;;
43700;SDS011;58809;47.984;7.964;2023-06-01T13:19:45;10.82;;;7.80;;
43700;SDS011;58809;47.984;7.964;2023-06-01T13:22:47;10.32;;;6.93;;
43700;SDS011;58809;47.984;7.964;2023-06-01T13:25:49;8.00;;;6.20;;
43700;SDS011;58809;47.984;7.964;2023-06-01T13:28:51;10.23;;;7.43;;
43700;SDS011;58809;47.984;7.964;2023-06-01T13:31:53;15.15;;;7.35;;
43700;SDS011;58809;47.984;7.964;2023-06-01T13:34:55;13.40;;;7.45;;
43700;SDS011;58809;47.984;7.964;2023-06-01T13:37:58;7.90;;;7.10;;
43700;SDS011;58809;47.984;7.964;2023-06-01T13:40:59;10.98;;;7.03;;
43700;SDS011;58809;47.984;7.964;2023-06-01T13:44:01;9.80;;;6.95;;
43700;SDS011;58809;47.984;7.964;2023-06-01T13:47:04;8.15;;;6.95;;
43700;SDS011;58809;47.984;7.964;2023-06-01T13:50:06;10.18;;;6.60;;
43700;SDS011;58809;47.984;7.964;2023-06-01T13:53:08;8.20;;;7.13;;
43700;SDS011;58809;47.984;7.964;2023-06-01T13:56:10;11.18;;;6.95;;
43700;SDS011;58809;47.984;7.964;2023-06-01T13:59:12;8.50;;;6.75;;
43700;SDS011;58809;47.984;7.964;2023-06-01T14:02:14;8.85;;;6.85;;
43700;SDS011;58809;47.984;7.964;2023-06-01T14:05:16;9.98;;;7.40;;
43700;SDS011;58809;47.984;7.964;2023-06-01T14:08:28;9.73;;;7.32;;
43700;SDS011;58809;47.984;7.964;2023-06-01T14:11:30;11.23;;;7.68;;
43700;SDS011;58809;47.984;7.964;2023-06-01T14:14:31;7.70;;;6.88;;
43700;SDS011;58809;47.984;7.964;2023-06-01T14:17:33;8.43;;;6.55;;
43700;SDS011;58809;47.984;7.964;2023-06-01T14:20:35;9.98;;;6.85;;
43700;SDS011;58809;47.984;7.964;2023-06-01T14:23:38;7.88;;;6.85;;
43700;SDS011;58809;47.984;7.964;2023-06-01T14:26:44;9.98;;;6.80;;
43700;SDS011;58809;47.984;7.964;2023-06-01T14:29:46;7.72;;;6.70;;
43700;SDS011;58809;47.984;7.964;2023-06-01T14:32:47;8.35;;;7.20;;
43700;SDS011;58809;47.984;7.964;2023-06-01T14:35:49;10.25;;;6.82;;
43700;SDS011;58809;47.984;7.964;2023-06-01T14:38:51;9.10;;;6.65;;
43700;SDS011;58809;47.984;7.964;2023-06-01T14:41:53;7.82;;;6.57;;
43700;SDS011;58809;47.984;7.964;2023-06-01T14:44:55;10.32;;;6.78;;
43700;SDS011;58809;47.984;7.964;2023-06-01T14:48:06;8.85;;;6.82;;
43700;SDS011;58809;47.984;7.964;2023-06-01T14:51:08;9.00;;;6.60;;
43700;SDS011;58809;47.984;7.964;2023-06-01T14:54:10;8.55;;;6.65;;
43700;SDS011;58809;47.984;7.964;2023-06-01T14:57:11;11.98;;;7.50;;
43700;SDS011;58809;47.984;7.964;2023-06-01T15:00:13;13.13;;;7.10;;
43700;SDS011;58809;47.984;7.964;2023-06-01T15:03:16;9.13;;;6.95;;
43700;SDS011;58809;47.984;7.964;2023-06-01T15:06:18;9.23;;;6.93;;
43700;SDS011;58809;47.984;7.964;2023-06-01T15:09:20;7.78;;;6.53;;
43700;SDS011;58809;47.984;7.964;2023-06-01T15:12:22;7.40;;;6.28;;
43700;SDS011;58809;47.984;7.964;2023-06-01T15:15:23;11.38;;;7.70;;
43700;SDS011;58809;47.984;7.964;2023-06-01T15:18:25;8.75;;;6.93;;
43700;SDS011;58809;47.984;7.964;2023-06-01T15:21:27;8.23;;;6.70;;
43700;SDS011;58809;47.984;7.964;2023-06-01T15:24:28;9.43;;;7.05;;
43700;SDS011;58809;47.984;7.964;2023-06-01T15:27:30;8.00;;;6.90;;
43700;SDS011;58809;47.984;7.964;2023-06-01T15:30:31;8.98;;;6.75;;
43700;SDS011;58809;47.984;7.964;2023-06-01T15:33:34;8.93;;;6.85;;
43700;SDS011;58809;47.984;7.964;2023-06-01T15:36:36;8.00;;;6.57;;
43700;SDS011;58809;47.984;7.964;2023-06-01T15:39:39;8.48;;;7.00;;
43700;SDS011;58809;47.984;7.964;2023-06-01T15:42:41;7.47;;;6.35;;
43700;SDS011;58809;47.984;7.964;2023-06-01T15:49:10;8.40;;;7.07;;
43700;SDS011;58809;47.984;7.964;2023-06-01T15:52:11;10.30;;;7.28;;
43700;SDS011;58809;47.984;7.964;2023-06-01T15:55:13;8.35;;;6.78;;
43700;SDS011;58809;47.984;7.964;2023-06-01T15:58:15;8.20;;;7.40;;
43700;SDS011;58809;47.984;7.964;2023-06-01T16:01:18;8.15;;;6.65;;
43700;SDS011;58809;47.984;7.964;2023-06-01T16:04:30;8.60;;;6.97;;
43700;SDS011;58809;47.984;7.964;2023-06-01T16:07:32;7.47;;;6.78;;
43700;SDS011;58809;47.984;7.964;2023-06-01T16:13:35;8.07;;;6.70;;
43700;SDS011;58809;47.984;7.964;2023-06-01T16:16:37;7.18;;;6.53;;
43700;SDS011;58809;47.984;7.964;2023-06-01T16:22:43;7.63;;;6.78;;
43700;SDS011;58809;47.984;7.964;2023-06-01T16:25:45;7.22;;;6.55;;
43700;SDS011;58809;47.984;7.964;2023-06-01T16:28:46;10.23;;;7.05;;
43700;SDS011;58809;47.984;7.964;2023-06-01T16:31:50;8.40;;;6.78;;
43700;SDS011;58809;47.984;7.964;2023-06-01T16:34:52;11.00;;;7.85;;
43700;SDS011;58809;47.984;7.964;2023-06-01T16:40:55;7.40;;;6.30;;
43700;SDS011;58809;47.984;7.964;2023-06-01T16:43:57;9.00;;;6.90;;
43700;SDS011;58809;47.984;7.964;2023-06-01T16:46:58;9.45;;;6.45;;
43700;SDS011;58809;47.984;7.964;2023-06-01T16:50:00;6.95;;;6.15;;
43700;SDS011;58809;47.984;7.964;2023-06-01T16:53:02;7.88;;;6.80;;
43700;SDS011;58809;47.984;7.964;2023-06-01T16:56:04;8.38;;;6.38;;
43700;SDS011;58809;47.984;7.964;2023-06-01T17:02:07;7.43;;;6.70;;
43700;SDS011;58809;47.984;7.964;2023-06-01T17:05:09;8.88;;;6.63;;
43700;SDS011;58809;47.984;7.964;2023-06-01T17:08:10;7.65;;;6.57;;
43700;SDS011;58809;47.984;7.964;2023-06-01T17:11:12;8.05;;;6.95;;
43700;SDS011;58809;47.984;7.964;2023-06-01T17:14:13;6.90;;;6.20;;
43700;SDS011;58809;47.984;7.964;2023-06-01T17:17:15;6.53;;;5.72;;
43700;SDS011;58809;47.984;7.964;2023-06-01T17:20:17;10.70;;;6.57;;
43700;SDS011;58809;47.984;7.964;2023-06-01T17:23:19;8.27;;;6.93;;
43700;SDS011;58809;47.984;7.964;2023-06-01T17:26:20;7.47;;;6.43;;
43700;SDS011;58809;47.984;7.964;2023-06-01T17:29:23;7.00;;;6.30;;
43700;SDS011;58809;47.984;7.964;2023-06-01T17:32:24;8.07;;;6.30;;
43700;SDS011;58809;47.984;7.964;2023-06-01T17:35:27;7.03;;;6.03;;
43700;SDS011;58809;47.984;7.964;2023-06-01T17:38:28;10.13;;;6.17;;
43700;SDS011;58809;47.984;7.964;2023-06-01T17:41:30;9.77;;;5.97;;
43700;SDS011;58809;47.984;7.964;2023-06-01T17:44:32;8.17;;;6.77;;
43700;SDS011;58809;47.984;7.964;2023-06-01T17:47:33;9.37;;;6.33;;
43700;SDS011;58809;47.984;7.964;2023-06-01T17:50:35;7.40;;;6.20;;
43700;SDS011;58809;47.984;7.964;2023-06-01T17:53:36;8.37;;;5.30;;
43700;SDS011;58809;47.984;7.964;2023-06-01T17:56:42;7.85;;;6.10;;
43700;SDS011;58809;47.984;7.964;2023-06-01T17:59:43;7.95;;;5.40;;
43700;SDS011;58809;47.984;7.964;2023-06-01T18:02:45;8.03;;;5.93;;
43700;SDS011;58809;47.984;7.964;2023-06-01T18:05:47;7.50;;;5.82;;
43700;SDS011;58809;47.984;7.964;2023-06-01T18:08:49;8.47;;;5.37;;
43700;SDS011;58809;47.984;7.964;2023-06-01T18:11:50;8.90;;;6.13;;
43700;SDS011;58809;47.984;7.964;2023-06-01T18:14:52;7.77;;;5.50;;
43700;SDS011;58809;47.984;7.964;2023-06-01T18:17:53;9.40;;;5.37;;
43700;SDS011;58809;47.984;7.964;2023-06-01T18:20:55;7.87;;;5.57;;
43700;SDS011;58809;47.984;7.964;2023-06-01T18:23:58;7.30;;;5.70;;
43700;SDS011;58809;47.984;7.964;2023-06-01T18:26:59;8.43;;;5.75;;
43700;SDS011;58809;47.984;7.964;2023-06-01T18:30:01;6.60;;;5.90;;
43700;SDS011;58809;47.984;7.964;2023-06-01T18:33:03;10.20;;;6.00;;
43700;SDS011;58809;47.984;7.964;2023-06-01T18:36:04;6.35;;;5.72;;
43700;SDS011;58809;47.984;7.964;2023-06-01T18:39:07;6.00;;;5.40;;
43700;SDS011;58809;47.984;7.964;2023-06-01T18:42:12;6.65;;;5.32;;
43700;SDS011;58809;47.984;7.964;2023-06-01T18:45:16;9.20;;;5.88;;
43700;SDS011;58809;47.984;7.964;2023-06-01T18:48:21;9.13;;;5.82;;
43700;SDS011;58809;47.984;7.964;2023-06-01T18:51:24;8.93;;;5.88;;
43700;SDS011;58809;47.984;7.964;2023-06-01T18:54:27;7.32;;;6.25;;
43700;SDS011;58809;47.984;7.964;2023-06-01T18:57:30;9.18;;;6.03;;
43700;SDS011;58809;47.984;7.964;2023-06-01T19:00:31;7.38;;;5.45;;
43700;SDS011;58809;47.984;7.964;2023-06-01T19:03:33;6.55;;;5.75;;
43700;SDS011;58809;47.984;7.964;2023-06-01T19:06:36;8.85;;;6.18;;
43700;SDS011;58809;47.984;7.964;2023-06-01T19:09:37;12.57;;;6.30;;
43700;SDS011;58809;47.984;7.964;2023-06-01T19:12:41;8.40;;;6.05;;
43700;SDS011;58809;47.984;7.964;2023-06-01T19:15:43;10.60;;;5.85;;
43700;SDS011;58809;47.984;7.964;2023-06-01T19:18:45;8.98;;;6.22;;
43700;SDS011;58809;47.984;7.964;2023-06-01T19:21:48;8.98;;;6.20;;
43700;SDS011;58809;47.984;7.964;2023-06-01T19:24:53;7.40;;;6.32;;
43700;SDS011;58809;47.984;7.964;2023-06-01T19:27:55;8.63;;;6.28;;
43700;SDS011;58809;47.984;7.964;2023-06-01T19:30:56;10.13;;;6.35;;